• Join FlightAware (Why Join?)
  • Login
  • US Flag 
10:42PM EDT


 

Airport Tracker/Info


-or-


 

Live Flight TrackerFlight Track Log ✈ UAL4550 ✈ 22-May-2013 ✈ KIAH - KMCI

Flight Track Log - Related Links

Times and Time Zones

All times are in EDT time to prevent confusion due to time zone crossing. See the UAL4550 flight status page for this flight to view local times or setup timezone preferences in your user account.

Time Position Orientation Groundspeed Altitude Reporting Facility
EDT Latitude Longitude Course Direction KTS MPH feet Rate Location/Type
02:11PM 29.9764 -95.2983 334° Northwest 172 198 700  Level Houston Center
02:12PM 30.0400 -95.2811 13° North 266 306 2,500 1,500 Climbing Houston Center
02:13PM 30.1078 -95.2872 356° North 270 311 4,000 1,980 Climbing Houston Center
02:14PM 30.1858 -95.2922 357° North 273 314 6,400 2,340 Climbing Houston Center
02:15PM 30.3453 -95.5471 332° Northwest  Level FlightAware Approximate
02:15PM 30.2531 -95.3400 328° Northwest 279 321 9,200  Level Houston Center
02:16PM 30.4369 -95.5982 334° Northwest  Level FlightAware Approximate
02:16PM 30.3083 -95.4006 317° Northwest 277 319 11,700  Level Houston Center
02:18PM 30.3656 -95.4642 316° Northwest 288 331 13,500 1,320 Climbing Houston Center
02:19PM 30.4350 -95.5414 316° Northwest 323 372 14,500 1,440 Climbing Houston Center
02:20PM 30.5061 -95.6197 317° Northwest 347 399 16,500 1,980 Climbing Houston Center
02:21PM 30.6017 -95.6864 329° Northwest 337 388 18,700 1,680 Climbing Houston Center
02:22PM 30.6897 -95.7347 335° Northwest 345 397 20,000 1,200 Climbing Houston Center
02:23PM 30.7822 -95.7833 336° Northwest 359 413 21,200 1,200 Climbing Houston Center
02:24PM 30.8769 -95.8347 335° Northwest 370 426 22,600 1,380 Climbing Houston Center
02:25PM 30.9722 -95.8856 335° Northwest 375 432 24,100 1,560 Climbing Houston Center
02:26PM 31.0650 -95.9344 336° Northwest 368 423 25,900 1,800 Climbing Houston Center
02:27PM 31.1778 -95.9806 341° North 362 417 27,900 1,740 Climbing Houston Center
02:28PM 31.2747 -96.0031 349° North 355 409 29,500 1,500 Climbing Houston Center
02:29PM 31.3719 -96.0236 350° North 353 406 31,000 1,440 Climbing Houston Center
02:30PM 31.4700 -96.0328 355° North 352 405 32,500 960 Climbing Houston Center
02:31PM 31.5686 -96.0431 355° North 352 405 33,000 240 Climbing Houston Center
02:32PM 31.6758 -96.0536 355° North 372 428 33,000  Level Fort Worth Center
02:33PM 31.7906 -96.0642 356° North 400 460 33,000  Level Fort Worth Center
02:34PM 31.9139 -96.0747 356° North 430 495 33,000  Level Fort Worth Center
02:35PM 32.0353 -96.0850 356° North 443 510 33,000 120 Level Fort Worth Center
02:36PM 32.1606 -96.1006 354° North 443 510 33,300 960 Climbing Fort Worth Center
02:37PM 32.2733 -96.1111 355° North 419 482 35,000 840 Climbing Fort Worth Center
02:38PM 32.3906 -96.1242 355° North 419 482 35,000  Level Fort Worth Center
02:39PM 32.5117 -96.1275 359° North 431 496 35,000  Level Fort Worth Center
02:40PM 32.6325 -96.1158 North 431 496 35,000  Level Fort Worth Center
02:41PM 32.7597 -96.1042 North 447 514 35,000  Level Fort Worth Center
02:42PM 32.8850 -96.0925 North 447 514 35,000  Level Fort Worth Center
02:43PM 33.0100 -96.0806 North 447 514 35,000  Level Fort Worth Center
02:44PM 33.1225 -96.0689 North 442 509 35,000  Level Fort Worth Center
02:45PM 33.2581 -96.0547 North 442 509 35,000  Level Fort Worth Center
02:46PM 33.3667 -96.0431 North 442 509 35,000  Level Fort Worth Center
02:47PM 33.5022 -96.0283 North 442 509 35,000  Level Fort Worth Center
02:48PM 33.6147 -96.0192 North 442 509 35,000  Level Fort Worth Center
02:49PM 33.7503 -96.0044 North 442 509 35,000  Level Fort Worth Center
02:50PM 33.8567 -95.9978 North 437 503 35,000  Level Fort Worth Center
02:51PM 33.9794 -95.9858 North 437 503 35,000  Level Fort Worth Center
02:52PM 34.1025 -95.9739 North 437 503 35,000  Level Fort Worth Center
02:53PM 34.2256 -95.9592 North 442 509 35,000  Level Fort Worth Center
02:54PM 34.3483 -95.9444 North 442 509 35,000  Level Fort Worth Center
02:55PM 34.4733 -95.9322 North 442 509 35,000  Level Fort Worth Center
02:56PM 34.5944 -95.9200 North 442 509 35,000  Level Fort Worth Center
02:57PM 34.7172 -95.9078 North 442 509 35,000  Level Fort Worth Center
02:58PM 34.8381 -95.8931 North 442 509 35,000  Level Fort Worth Center
02:59PM 34.9756 -95.8831 North 442 509 35,000  Level Fort Worth Center
03:00PM 35.0944 -95.8658 North 442 509 35,000  Level Fort Worth Center
03:01PM 35.2131 -95.8558 North 431 496 35,000  Level Fort Worth Center
03:02PM 35.3297 -95.8436 North 425 489 35,000  Level Fort Worth Center
03:04PM 35.5478 -95.8178 North 426 490 35,000  Level Kansas City Center
03:05PM 35.6672 -95.8061 North 427 491 35,000  Level Kansas City Center
03:06PM 35.7867 -95.7933 North 429 494 35,000  Level Kansas City Center
03:07PM 35.9064 -95.7803 North 429 494 35,000  Level Kansas City Center
03:08PM 36.0272 -95.7686 North 431 496 35,000  Level Kansas City Center
03:09PM 36.1469 -95.7547 North 430 495 35,000 -600 Level Kansas City Center
03:10PM 36.2658 -95.7386 North 433 498 33,800 -960 Descending Kansas City Center
03:11PM 36.4131 -95.7211 North 442 509 33,000 -420 Descending Kansas City Center
03:12PM 36.5361 -95.7058 North 445 512 33,000  Level Kansas City Center
03:13PM 36.6697 -95.6897 North 445 512 33,000  Level Kansas City Center
03:14PM 36.7944 -95.6733 North 447 514 33,000  Level Kansas City Center
03:15PM 36.9194 -95.6597 North 447 514 33,000  Level Kansas City Center
03:16PM 37.0436 -95.6450 North 446 513 33,000  Level Kansas City Center
03:17PM 37.1672 -95.6289 North 445 512 33,000  Level Kansas City Center
03:18PM 37.2906 -95.6142 North 444 511 33,000  Level Kansas City Center
03:19PM 37.4117 -95.5983 North 440 506 33,000  Level Kansas City Center
03:20PM 37.5572 -95.5778 North 437 503 33,000  Level Kansas City Center
03:21PM 37.6778 -95.5633 North 434 499 33,000  Level Kansas City Center
03:22PM 37.7989 -95.5469 North 435 501 33,000 -600 Level Kansas City Center
03:23PM 37.9189 -95.5331 North 433 498 31,800 -1,980 Descending Kansas City Center
03:24PM 38.0508 -95.5183 North 434 499 29,000 -2,520 Descending Kansas City Center
03:25PM 38.1669 -95.5061 North 437 503 26,600 -2,580 Descending Kansas City Center
03:26PM 38.3008 -95.4872 North 432 497 23,700 -2,580 Descending Kansas City Center
03:27PM 38.4103 -95.4731 North 414 476 21,300 -2,580 Descending Kansas City Center
03:28PM 38.5339 -95.4572 North 400 460 18,400 -2,580 Descending Kansas City Center
03:30PM 38.6372 -95.4417 North 388 447 16,000 -2,520 Descending Kansas City Center
03:31PM 38.7525 -95.4278 North 375 432 13,200 -1,920 Descending Kansas City Center
03:32PM 38.8392 -95.3742 26° Northeast 373 429 12,100 -540 Descending Kansas City Center
03:33PM 38.9186 -95.2603 48° Northeast 384 442 12,100  Level Kansas City Center
03:34PM 38.9867 -95.1611 49° Northeast 388 447 12,100 -60 Level Kansas City Center
03:35PM 39.0653 -95.0481 48° Northeast 385 443 12,000 -60 Descending Kansas City Center
03:36PM 39.1308 -94.9511 49° Northeast 380 437 12,000 -360 Level Kansas City Center
03:37PM 39.1739 -94.8297 65° Northeast 348 400 11,300 -1,020 Descending Kansas City Center
03:38PM 39.1656 -94.7175 95° East 325 374 10,000 -2,100 Descending Kansas City Center
03:39PM 39.1569 -94.5967 95° East 304 350 7,000 -2,340 Descending Kansas City Center
03:40PM 39.1575 -94.5014 90° East 285 328 5,200 -1,020 Descending Kansas City Center
03:41PM 39.2183 -94.4389 39° Northeast 260 299 5,000 -600 Descending Kansas City Center
03:42PM 39.2678 -94.4747 331° Northwest 243 280 4,000 -1,020 Descending Kansas City Center
03:43PM 39.2775 -94.5700 278° West 243 280 2,900 -1,020 Descending Kansas City Center
03:44PM 39.2828 -94.6311 276° West 176 203 2,000 -900 Descending Kansas City Center